sensor_id;sensor_type;location;lat;lon;timestamp;pressure;altitude;pressure_sealevel;temperature;humidity
50310;BME280;36207;51.850;21.698;2024-01-06T00:02:01;99291.92;;;-1.03;77.33
50310;BME280;36207;51.850;21.698;2024-01-06T00:04:27;99287.83;;;-1.02;77.24
50310;BME280;36207;51.850;21.698;2024-01-06T00:06:54;99285.73;;;-1.02;77.37
50310;BME280;36207;51.850;21.698;2024-01-06T00:09:20;99283.42;;;-1.04;77.27
50310;BME280;36207;51.850;21.698;2024-01-06T00:11:46;99283.58;;;-1.05;77.19
50310;BME280;36207;51.850;21.698;2024-01-06T00:14:13;99284.02;;;-1.07;77.31
50310;BME280;36207;51.850;21.698;2024-01-06T00:16:39;99278.91;;;-1.11;77.22
50310;BME280;36207;51.850;21.698;2024-01-06T00:19:05;99272.40;;;-1.08;77.38
50310;BME280;36207;51.850;21.698;2024-01-06T00:21:31;99280.30;;;-1.04;77.34
50310;BME280;36207;51.850;21.698;2024-01-06T00:23:57;99284.21;;;-1.05;77.38
50310;BME280;36207;51.850;21.698;2024-01-06T00:26:23;99288.70;;;-1.08;77.06
50310;BME280;36207;51.850;21.698;2024-01-06T00:28:50;99294.66;;;-1.11;77.27
50310;BME280;36207;51.850;21.698;2024-01-06T00:31:17;99300.42;;;-1.11;77.32
50310;BME280;36207;51.850;21.698;2024-01-06T00:33:43;99297.89;;;-1.10;77.32
50310;BME280;36207;51.850;21.698;2024-01-06T00:36:09;99291.36;;;-1.07;77.36
50310;BME280;36207;51.850;21.698;2024-01-06T00:38:35;99288.56;;;-1.00;77.38
50310;BME280;36207;51.850;21.698;2024-01-06T00:41:01;99283.48;;;-0.98;77.54
50310;BME280;36207;51.850;21.698;2024-01-06T00:43:28;99279.48;;;-0.96;77.42
50310;BME280;36207;51.850;21.698;2024-01-06T00:45:54;99277.25;;;-0.95;77.41
50310;BME280;36207;51.850;21.698;2024-01-06T00:48:20;99279.92;;;-0.95;77.23
50310;BME280;36207;51.850;21.698;2024-01-06T00:50:46;99277.13;;;-0.97;77.36
50310;BME280;36207;51.850;21.698;2024-01-06T00:53:12;99278.45;;;-0.98;77.19
50310;BME280;36207;51.850;21.698;2024-01-06T00:55:38;99280.12;;;-0.97;77.32
50310;BME280;36207;51.850;21.698;2024-01-06T00:58:04;99279.20;;;-0.97;77.19
50310;BME280;36207;51.850;21.698;2024-01-06T01:00:30;99285.11;;;-0.97;77.38
50310;BME280;36207;51.850;21.698;2024-01-06T01:02:56;99282.69;;;-0.95;77.37
50310;BME280;36207;51.850;21.698;2024-01-06T01:05:22;99280.21;;;-0.94;77.29
50310;BME280;36207;51.850;21.698;2024-01-06T01:07:48;99280.49;;;-0.96;77.45
50310;BME280;36207;51.850;21.698;2024-01-06T01:10:14;99275.21;;;-0.97;77.25
50310;BME280;36207;51.850;21.698;2024-01-06T01:12:40;99275.81;;;-0.98;77.39
50310;BME280;36207;51.850;21.698;2024-01-06T01:15:07;99274.11;;;-0.99;77.39
50310;BME280;36207;51.850;21.698;2024-01-06T01:17:33;99279.23;;;-0.99;77.33
50310;BME280;36207;51.850;21.698;2024-01-06T01:19:59;99279.29;;;-0.98;77.37
50310;BME280;36207;51.850;21.698;2024-01-06T01:22:25;99279.54;;;-0.95;77.34
50310;BME280;36207;51.850;21.698;2024-01-06T01:24:51;99280.23;;;-0.93;77.45
50310;BME280;36207;51.850;21.698;2024-01-06T01:27:17;99278.41;;;-0.94;77.41
50310;BME280;36207;51.850;21.698;2024-01-06T01:29:43;99283.98;;;-0.93;77.47
50310;BME280;36207;51.850;21.698;2024-01-06T01:32:09;99285.73;;;-0.94;77.46
50310;BME280;36207;51.850;21.698;2024-01-06T01:34:35;99290.92;;;-0.97;77.31
50310;BME280;36207;51.850;21.698;2024-01-06T01:37:01;99289.34;;;-0.99;77.39
50310;BME280;36207;51.850;21.698;2024-01-06T01:39:27;99288.79;;;-1.03;77.44
50310;BME280;36207;51.850;21.698;2024-01-06T01:41:53;99285.52;;;-1.01;77.58
50310;BME280;36207;51.850;21.698;2024-01-06T01:44:19;99287.72;;;-1.00;77.54
50310;BME280;36207;51.850;21.698;2024-01-06T01:46:45;99287.38;;;-1.03;77.72
50310;BME280;36207;51.850;21.698;2024-01-06T01:49:11;99285.90;;;-1.04;77.70
50310;BME280;36207;51.850;21.698;2024-01-06T01:51:38;99280.23;;;-1.05;77.64
50310;BME280;36207;51.850;21.698;2024-01-06T01:54:05;99278.96;;;-1.11;77.53
50310;BME280;36207;51.850;21.698;2024-01-06T01:56:33;99279.02;;;-1.14;77.47
50310;BME280;36207;51.850;21.698;2024-01-06T01:59:09;99285.57;;;-1.15;77.71
50310;BME280;36207;51.850;21.698;2024-01-06T02:01:36;99288.36;;;-1.15;77.75
50310;BME280;36207;51.850;21.698;2024-01-06T02:04:02;99291.64;;;-1.13;77.65
50310;BME280;36207;51.850;21.698;2024-01-06T02:06:28;99295.08;;;-1.07;77.74
50310;BME280;36207;51.850;21.698;2024-01-06T02:08:55;99299.53;;;-1.06;77.72
50310;BME280;36207;51.850;21.698;2024-01-06T02:11:21;99294.92;;;-1.10;77.68
50310;BME280;36207;51.850;21.698;2024-01-06T02:13:47;99292.61;;;-1.16;77.77
50310;BME280;36207;51.850;21.698;2024-01-06T02:16:13;99290.05;;;-1.19;77.83
50310;BME280;36207;51.850;21.698;2024-01-06T02:18:39;99279.16;;;-1.21;77.68
50310;BME280;36207;51.850;21.698;2024-01-06T02:21:06;99275.02;;;-1.19;77.71
50310;BME280;36207;51.850;21.698;2024-01-06T02:23:35;99278.90;;;-1.15;77.68
50310;BME280;36207;51.850;21.698;2024-01-06T02:26:02;99282.26;;;-1.13;77.79
50310;BME280;36207;51.850;21.698;2024-01-06T02:28:28;99286.99;;;-1.11;78.01
50310;BME280;36207;51.850;21.698;2024-01-06T02:30:54;99283.39;;;-1.07;78.04
50310;BME280;36207;51.850;21.698;2024-01-06T02:33:25;99279.42;;;-1.06;77.84
50310;BME280;36207;51.850;21.698;2024-01-06T02:35:54;99275.77;;;-1.06;77.93
50310;BME280;36207;51.850;21.698;2024-01-06T02:38:20;99274.74;;;-1.09;77.78
50310;BME280;36207;51.850;21.698;2024-01-06T02:40:46;99273.98;;;-1.10;77.80
50310;BME280;36207;51.850;21.698;2024-01-06T02:43:12;99274.33;;;-1.15;77.79
50310;BME280;36207;51.850;21.698;2024-01-06T02:45:38;99273.13;;;-1.21;78.02
50310;BME280;36207;51.850;21.698;2024-01-06T02:48:04;99271.52;;;-1.23;77.98
50310;BME280;36207;51.850;21.698;2024-01-06T02:50:31;99270.36;;;-1.22;77.97
50310;BME280;36207;51.850;21.698;2024-01-06T02:52:57;99268.47;;;-1.18;77.95
50310;BME280;36207;51.850;21.698;2024-01-06T02:55:23;99276.58;;;-1.16;78.14
50310;BME280;36207;51.850;21.698;2024-01-06T02:57:48;99273.71;;;-1.18;78.03
50310;BME280;36207;51.850;21.698;2024-01-06T03:00:15;99267.80;;;-1.18;78.05
50310;BME280;36207;51.850;21.698;2024-01-06T03:02:41;99267.70;;;-1.21;78.09
50310;BME280;36207;51.850;21.698;2024-01-06T03:05:09;99267.27;;;-1.20;78.11
50310;BME280;36207;51.850;21.698;2024-01-06T03:07:36;99265.77;;;-1.17;78.22
50310;BME280;36207;51.850;21.698;2024-01-06T03:10:02;99264.45;;;-1.15;78.14
50310;BME280;36207;51.850;21.698;2024-01-06T03:12:28;99265.38;;;-1.18;78.15
50310;BME280;36207;51.850;21.698;2024-01-06T03:14:54;99261.16;;;-1.22;78.35
50310;BME280;36207;51.850;21.698;2024-01-06T03:17:20;99257.48;;;-1.24;78.42
50310;BME280;36207;51.850;21.698;2024-01-06T03:19:46;99252.59;;;-1.29;78.37
50310;BME280;36207;51.850;21.698;2024-01-06T03:22:12;99249.61;;;-1.33;78.25
50310;BME280;36207;51.850;21.698;2024-01-06T03:24:40;99248.48;;;-1.32;78.43
50310;BME280;36207;51.850;21.698;2024-01-06T03:27:05;99251.13;;;-1.28;78.52
50310;BME280;36207;51.850;21.698;2024-01-06T03:29:31;99251.84;;;-1.28;78.39
50310;BME280;36207;51.850;21.698;2024-01-06T03:31:57;99255.19;;;-1.30;78.32
50310;BME280;36207;51.850;21.698;2024-01-06T03:34:24;99255.69;;;-1.39;78.36
50310;BME280;36207;51.850;21.698;2024-01-06T03:36:50;99260.08;;;-1.48;78.38
50310;BME280;36207;51.850;21.698;2024-01-06T03:39:16;99259.56;;;-1.55;78.39
50310;BME280;36207;51.850;21.698;2024-01-06T03:41:42;99265.15;;;-1.60;78.72
50310;BME280;36207;51.850;21.698;2024-01-06T03:44:09;99266.42;;;-1.60;78.68
50310;BME280;36207;51.850;21.698;2024-01-06T03:46:35;99265.39;;;-1.61;78.60
50310;BME280;36207;51.850;21.698;2024-01-06T03:49:01;99266.42;;;-1.60;78.55
50310;BME280;36207;51.850;21.698;2024-01-06T03:51:27;99265.68;;;-1.62;78.75
50310;BME280;36207;51.850;21.698;2024-01-06T03:53:53;99266.95;;;-1.67;78.59
50310;BME280;36207;51.850;21.698;2024-01-06T03:56:19;99274.80;;;-1.69;78.65
50310;BME280;36207;51.850;21.698;2024-01-06T03:58:45;99277.67;;;-1.70;78.64
50310;BME280;36207;51.850;21.698;2024-01-06T04:01:11;99284.70;;;-1.69;78.73
50310;BME280;36207;51.850;21.698;2024-01-06T04:03:38;99281.60;;;-1.65;78.79
50310;BME280;36207;51.850;21.698;2024-01-06T04:06:21;99279.24;;;-1.59;78.87
50310;BME280;36207;51.850;21.698;2024-01-06T04:08:46;99279.20;;;-1.61;78.89
50310;BME280;36207;51.850;21.698;2024-01-06T04:11:12;99277.55;;;-1.67;78.89
50310;BME280;36207;51.850;21.698;2024-01-06T04:13:38;99273.46;;;-1.70;78.88
50310;BME280;36207;51.850;21.698;2024-01-06T04:16:04;99272.41;;;-1.72;79.00
50310;BME280;36207;51.850;21.698;2024-01-06T04:18:31;99268.46;;;-1.71;79.00
50310;BME280;36207;51.850;21.698;2024-01-06T04:20:56;99269.51;;;-1.71;79.12
50310;BME280;36207;51.850;21.698;2024-01-06T04:23:22;99268.59;;;-1.72;79.08
50310;BME280;36207;51.850;21.698;2024-01-06T04:25:49;99266.26;;;-1.71;79.05
50310;BME280;36207;51.850;21.698;2024-01-06T04:28:15;99261.46;;;-1.68;79.10
50310;BME280;36207;51.850;21.698;2024-01-06T04:30:41;99256.88;;;-1.70;79.14
50310;BME280;36207;51.850;21.698;2024-01-06T04:33:06;99251.82;;;-1.70;79.13
50310;BME280;36207;51.850;21.698;2024-01-06T04:35:33;99249.52;;;-1.67;79.16
50310;BME280;36207;51.850;21.698;2024-01-06T04:37:59;99257.17;;;-1.60;79.23
50310;BME280;36207;51.850;21.698;2024-01-06T04:40:25;99257.20;;;-1.52;79.44
50310;BME280;36207;51.850;21.698;2024-01-06T04:42:51;99251.77;;;-1.45;79.35
50310;BME280;36207;51.850;21.698;2024-01-06T04:45:17;99245.20;;;-1.39;79.39
50310;BME280;36207;51.850;21.698;2024-01-06T04:47:45;99245.88;;;-1.37;79.46
50310;BME280;36207;51.850;21.698;2024-01-06T04:50:11;99244.16;;;-1.39;79.18
50310;BME280;36207;51.850;21.698;2024-01-06T04:52:37;99245.25;;;-1.42;79.10
50310;BME280;36207;51.850;21.698;2024-01-06T04:55:03;99244.74;;;-1.42;79.25
50310;BME280;36207;51.850;21.698;2024-01-06T04:57:29;99246.87;;;-1.41;79.20
50310;BME280;36207;51.850;21.698;2024-01-06T04:59:55;99252.80;;;-1.40;79.26
50310;BME280;36207;51.850;21.698;2024-01-06T05:02:21;99256.09;;;-1.40;79.29
50310;BME280;36207;51.850;21.698;2024-01-06T05:04:47;99257.64;;;-1.42;79.28
50310;BME280;36207;51.850;21.698;2024-01-06T05:07:13;99255.68;;;-1.46;79.30
50310;BME280;36207;51.850;21.698;2024-01-06T05:09:39;99252.71;;;-1.44;79.44
50310;BME280;36207;51.850;21.698;2024-01-06T05:12:05;99258.67;;;-1.44;79.47
50310;BME280;36207;51.850;21.698;2024-01-06T05:14:31;99260.45;;;-1.48;79.32
50310;BME280;36207;51.850;21.698;2024-01-06T05:16:57;99263.01;;;-1.48;79.46
50310;BME280;36207;51.850;21.698;2024-01-06T05:19:24;99263.27;;;-1.47;79.48
50310;BME280;36207;51.850;21.698;2024-01-06T05:21:50;99268.35;;;-1.45;79.35
50310;BME280;36207;51.850;21.698;2024-01-06T05:24:18;99268.30;;;-1.40;79.53
50310;BME280;36207;51.850;21.698;2024-01-06T05:26:45;99273.17;;;-1.33;79.66
50310;BME280;36207;51.850;21.698;2024-01-06T05:29:11;99273.81;;;-1.27;79.50
50310;BME280;36207;51.850;21.698;2024-01-06T05:31:37;99275.77;;;-1.26;79.47
50310;BME280;36207;51.850;21.698;2024-01-06T05:34:03;99282.70;;;-1.23;79.45
50310;BME280;36207;51.850;21.698;2024-01-06T05:36:30;99283.49;;;-1.22;79.44
50310;BME280;36207;51.850;21.698;2024-01-06T05:38:56;99279.25;;;-1.24;79.20
50310;BME280;36207;51.850;21.698;2024-01-06T05:41:22;99279.25;;;-1.24;79.31
50310;BME280;36207;51.850;21.698;2024-01-06T05:43:48;99282.64;;;-1.22;79.29
50310;BME280;36207;51.850;21.698;2024-01-06T05:46:21;99285.84;;;-1.21;79.49
50310;BME280;36207;51.850;21.698;2024-01-06T05:48:47;99290.61;;;-1.22;79.31
50310;BME280;36207;51.850;21.698;2024-01-06T05:51:13;99290.48;;;-1.22;79.32
50310;BME280;36207;51.850;21.698;2024-01-06T05:53:39;99295.66;;;-1.21;79.34
50310;BME280;36207;51.850;21.698;2024-01-06T05:56:05;99301.67;;;-1.18;79.41
50310;BME280;36207;51.850;21.698;2024-01-06T05:58:31;99299.50;;;-1.17;79.33
50310;BME280;36207;51.850;21.698;2024-01-06T06:00:57;99307.34;;;-1.17;79.24
50310;BME280;36207;51.850;21.698;2024-01-06T06:03:23;99302.61;;;-1.19;79.28
50310;BME280;36207;51.850;21.698;2024-01-06T06:05:50;99306.06;;;-1.18;79.44
50310;BME280;36207;51.850;21.698;2024-01-06T06:08:16;99304.06;;;-1.19;79.30
50310;BME280;36207;51.850;21.698;2024-01-06T06:10:42;99305.84;;;-1.22;79.35
50310;BME280;36207;51.850;21.698;2024-01-06T06:13:25;99307.63;;;-1.20;79.24
50310;BME280;36207;51.850;21.698;2024-01-06T06:15:51;99310.17;;;-1.17;79.35
50310;BME280;36207;51.850;21.698;2024-01-06T06:18:18;99316.35;;;-1.16;79.42
50310;BME280;36207;51.850;21.698;2024-01-06T06:20:44;99323.48;;;-1.13;79.47
50310;BME280;36207;51.850;21.698;2024-01-06T06:23:10;99329.23;;;-1.09;79.54
50310;BME280;36207;51.850;21.698;2024-01-06T06:25:39;99332.98;;;-1.10;79.21
50310;BME280;36207;51.850;21.698;2024-01-06T06:28:05;99333.69;;;-1.14;79.29
50310;BME280;36207;51.850;21.698;2024-01-06T06:30:32;99335.71;;;-1.18;79.43
50310;BME280;36207;51.850;21.698;2024-01-06T06:32:58;99336.14;;;-1.19;79.38
50310;BME280;36207;51.850;21.698;2024-01-06T06:35:25;99335.60;;;-1.20;79.37
50310;BME280;36207;51.850;21.698;2024-01-06T06:37:51;99337.00;;;-1.18;79.46
50310;BME280;36207;51.850;21.698;2024-01-06T06:40:17;99339.85;;;-1.17;79.36
50310;BME280;36207;51.850;21.698;2024-01-06T06:42:44;99340.89;;;-1.19;79.48
50310;BME280;36207;51.850;21.698;2024-01-06T06:45:10;99340.02;;;-1.21;79.20
50310;BME280;36207;51.850;21.698;2024-01-06T06:47:38;99339.43;;;-1.23;79.39
50310;BME280;36207;51.850;21.698;2024-01-06T06:50:05;99344.09;;;-1.22;79.44
50310;BME280;36207;51.850;21.698;2024-01-06T06:52:31;99343.65;;;-1.18;79.54
50310;BME280;36207;51.850;21.698;2024-01-06T06:54:57;99349.69;;;-1.18;79.51
50310;BME280;36207;51.850;21.698;2024-01-06T06:57:23;99349.80;;;-1.17;79.66
50310;BME280;36207;51.850;21.698;2024-01-06T06:59:50;99345.42;;;-1.17;79.68
50310;BME280;36207;51.850;21.698;2024-01-06T07:02:16;99339.90;;;-1.16;79.64
50310;BME280;36207;51.850;21.698;2024-01-06T07:04:42;99340.41;;;-1.15;79.67
50310;BME280;36207;51.850;21.698;2024-01-06T07:07:08;99340.45;;;-1.16;79.60
50310;BME280;36207;51.850;21.698;2024-01-06T07:09:34;99335.88;;;-1.16;79.79
50310;BME280;36207;51.850;21.698;2024-01-06T07:12:00;99335.62;;;-1.16;79.63
50310;BME280;36207;51.850;21.698;2024-01-06T07:14:26;99338.92;;;-1.19;79.62
50310;BME280;36207;51.850;21.698;2024-01-06T07:16:52;99333.80;;;-1.24;79.94
50310;BME280;36207;51.850;21.698;2024-01-06T07:19:18;99334.79;;;-1.26;79.73
50310;BME280;36207;51.850;21.698;2024-01-06T07:21:44;99335.15;;;-1.24;79.86
50310;BME280;36207;51.850;21.698;2024-01-06T07:24:10;99337.19;;;-1.21;79.93
50310;BME280;36207;51.850;21.698;2024-01-06T07:26:36;99343.99;;;-1.19;79.96
50310;BME280;36207;51.850;21.698;2024-01-06T07:29:02;99345.06;;;-1.15;80.01
50310;BME280;36207;51.850;21.698;2024-01-06T07:31:28;99352.44;;;-1.11;80.11
50310;BME280;36207;51.850;21.698;2024-01-06T07:33:54;99354.34;;;-1.06;80.08
50310;BME280;36207;51.850;21.698;2024-01-06T07:36:20;99361.42;;;-1.00;80.08
50310;BME280;36207;51.850;21.698;2024-01-06T07:38:47;99363.73;;;-0.97;80.07
50310;BME280;36207;51.850;21.698;2024-01-06T07:41:13;99369.84;;;-0.92;79.99
50310;BME280;36207;51.850;21.698;2024-01-06T07:43:39;99369.98;;;-0.87;80.21
50310;BME280;36207;51.850;21.698;2024-01-06T07:46:05;99369.90;;;-0.86;80.06
50310;BME280;36207;51.850;21.698;2024-01-06T07:48:32;99374.86;;;-0.89;79.88
50310;BME280;36207;51.850;21.698;2024-01-06T07:50:58;99373.23;;;-0.91;79.99
50310;BME280;36207;51.850;21.698;2024-01-06T07:53:24;99379.52;;;-0.88;80.04
50310;BME280;36207;51.850;21.698;2024-01-06T07:55:50;99380.21;;;-0.84;80.08
50310;BME280;36207;51.850;21.698;2024-01-06T07:58:17;99387.20;;;-0.81;80.08
50310;BME280;36207;51.850;21.698;2024-01-06T08:00:43;99390.23;;;-0.82;80.08
50310;BME280;36207;51.850;21.698;2024-01-06T08:03:09;99386.11;;;-0.81;80.05
50310;BME280;36207;51.850;21.698;2024-01-06T08:05:37;99384.84;;;-0.80;80.09
50310;BME280;36207;51.850;21.698;2024-01-06T08:08:04;99383.44;;;-0.80;80.07
50310;BME280;36207;51.850;21.698;2024-01-06T08:10:30;99389.90;;;-0.80;80.10
50310;BME280;36207;51.850;21.698;2024-01-06T08:12:57;99389.20;;;-0.79;80.15
50310;BME280;36207;51.850;21.698;2024-01-06T08:15:23;99387.63;;;-0.76;79.93
50310;BME280;36207;51.850;21.698;2024-01-06T08:17:48;99391.66;;;-0.76;80.13
50310;BME280;36207;51.850;21.698;2024-01-06T08:20:14;99390.51;;;-0.75;80.05
50310;BME280;36207;51.850;21.698;2024-01-06T08:22:40;99394.50;;;-0.72;80.02
50310;BME280;36207;51.850;21.698;2024-01-06T08:25:07;99399.64;;;-0.73;80.02
50310;BME280;36207;51.850;21.698;2024-01-06T08:27:33;99396.08;;;-0.70;80.11
50310;BME280;36207;51.850;21.698;2024-01-06T08:30:00;99401.14;;;-0.72;79.87
50310;BME280;36207;51.850;21.698;2024-01-06T08:32:26;99403.50;;;-0.71;79.95
50310;BME280;36207;51.850;21.698;2024-01-06T08:34:52;99406.39;;;-0.72;79.85
50310;BME280;36207;51.850;21.698;2024-01-06T08:37:18;99405.58;;;-0.73;79.96
50310;BME280;36207;51.850;21.698;2024-01-06T08:39:44;99403.52;;;-0.71;80.05
50310;BME280;36207;51.850;21.698;2024-01-06T08:42:10;99405.20;;;-0.68;80.12
50310;BME280;36207;51.850;21.698;2024-01-06T08:44:36;99405.11;;;-0.69;79.97
50310;BME280;36207;51.850;21.698;2024-01-06T08:47:02;99406.62;;;-0.66;79.92
50310;BME280;36207;51.850;21.698;2024-01-06T08:49:28;99407.76;;;-0.68;79.87
50310;BME280;36207;51.850;21.698;2024-01-06T08:51:54;99410.71;;;-0.70;79.76
50310;BME280;36207;51.850;21.698;2024-01-06T08:54:20;99410.13;;;-0.69;79.94
50310;BME280;36207;51.850;21.698;2024-01-06T08:56:46;99410.92;;;-0.63;80.26
50310;BME280;36207;51.850;21.698;2024-01-06T08:59:13;99416.85;;;-0.59;80.27
50310;BME280;36207;51.850;21.698;2024-01-06T09:01:38;99420.77;;;-0.56;80.10
50310;BME280;36207;51.850;21.698;2024-01-06T09:04:04;99421.79;;;-0.51;80.17
50310;BME280;36207;51.850;21.698;2024-01-06T09:06:32;99419.92;;;-0.45;80.22
50310;BME280;36207;51.850;21.698;2024-01-06T09:08:58;99417.92;;;-0.39;80.05
50310;BME280;36207;51.850;21.698;2024-01-06T09:11:23;99415.00;;;-0.36;80.22
50310;BME280;36207;51.850;21.698;2024-01-06T09:13:49;99411.96;;;-0.29;79.94
50310;BME280;36207;51.850;21.698;2024-01-06T09:16:19;99414.31;;;-0.23;80.08
50310;BME280;36207;51.850;21.698;2024-01-06T09:18:45;99417.25;;;-0.16;80.05
50310;BME280;36207;51.850;21.698;2024-01-06T09:21:11;99423.52;;;-0.14;79.88
50310;BME280;36207;51.850;21.698;2024-01-06T09:23:37;99426.00;;;-0.12;79.82
50310;BME280;36207;51.850;21.698;2024-01-06T09:26:03;99430.23;;;-0.12;79.88
50310;BME280;36207;51.850;21.698;2024-01-06T09:28:29;99440.30;;;-0.11;79.93
50310;BME280;36207;51.850;21.698;2024-01-06T09:30:54;99442.55;;;-0.07;79.94
50310;BME280;36207;51.850;21.698;2024-01-06T09:33:22;99444.55;;;-0.01;79.90
50310;BME280;36207;51.850;21.698;2024-01-06T09:35:49;99444.95;;;0.03;79.68
50310;BME280;36207;51.850;21.698;2024-01-06T09:38:14;99440.48;;;0.02;79.41
50310;BME280;36207;51.850;21.698;2024-01-06T09:40:42;99442.72;;;-0.00;79.44
50310;BME280;36207;51.850;21.698;2024-01-06T09:43:12;99446.84;;;0.01;79.54
50310;BME280;36207;51.850;21.698;2024-01-06T09:45:38;99448.18;;;-0.03;79.29
50310;BME280;36207;51.850;21.698;2024-01-06T09:48:12;99451.58;;;-0.10;79.03
50310;BME280;36207;51.850;21.698;2024-01-06T09:50:40;99449.92;;;-0.13;79.16
50310;BME280;36207;51.850;21.698;2024-01-06T09:53:11;99453.84;;;-0.14;79.42
50310;BME280;36207;51.850;21.698;2024-01-06T09:55:38;99450.37;;;-0.13;79.41
50310;BME280;36207;51.850;21.698;2024-01-06T09:58:05;99453.05;;;-0.09;79.49
50310;BME280;36207;51.850;21.698;2024-01-06T10:00:32;99451.88;;;-0.03;79.55
50310;BME280;36207;51.850;21.698;2024-01-06T10:02:57;99453.15;;;0.03;79.42
50310;BME280;36207;51.850;21.698;2024-01-06T10:05:24;99454.77;;;0.07;79.33
50310;BME280;36207;51.850;21.698;2024-01-06T10:07:49;99454.50;;;0.08;79.40
50310;BME280;36207;51.850;21.698;2024-01-06T10:10:16;99454.27;;;0.09;79.51
50310;BME280;36207;51.850;21.698;2024-01-06T10:12:42;99454.95;;;0.09;79.34
50310;BME280;36207;51.850;21.698;2024-01-06T10:15:10;99458.02;;;0.10;79.40
50310;BME280;36207;51.850;21.698;2024-01-06T10:17:40;99459.84;;;0.11;79.29
50310;BME280;36207;51.850;21.698;2024-01-06T10:20:11;99455.08;;;0.09;79.18
50310;BME280;36207;51.850;21.698;2024-01-06T10:22:38;99450.89;;;0.09;79.12
50310;BME280;36207;51.850;21.698;2024-01-06T10:25:07;99449.43;;;0.12;79.35
50310;BME280;36207;51.850;21.698;2024-01-06T10:27:40;99447.39;;;0.15;79.24
50310;BME280;36207;51.850;21.698;2024-01-06T10:30:08;99446.72;;;0.17;79.18
50310;BME280;36207;51.850;21.698;2024-01-06T10:32:35;99442.42;;;0.16;78.80
50310;BME280;36207;51.850;21.698;2024-01-06T10:35:03;99438.48;;;0.13;78.97
50310;BME280;36207;51.850;21.698;2024-01-06T10:37:30;99442.85;;;0.11;79.09
50310;BME280;36207;51.850;21.698;2024-01-06T10:40:12;99444.38;;;0.05;78.46
50310;BME280;36207;51.850;21.698;2024-01-06T10:42:39;99446.90;;;-0.04;78.71
50310;BME280;36207;51.850;21.698;2024-01-06T10:45:10;99450.31;;;-0.06;78.88
50310;BME280;36207;51.850;21.698;2024-01-06T10:47:38;99444.75;;;-0.06;78.80
50310;BME280;36207;51.850;21.698;2024-01-06T10:50:05;99449.11;;;-0.08;78.81
50310;BME280;36207;51.850;21.698;2024-01-06T10:52:31;99449.36;;;-0.09;78.88
50310;BME280;36207;51.850;21.698;2024-01-06T10:54:58;99445.65;;;-0.10;78.94
50310;BME280;36207;51.850;21.698;2024-01-06T10:57:24;99441.57;;;-0.08;79.02
50310;BME280;36207;51.850;21.698;2024-01-06T10:59:51;99435.23;;;-0.09;78.80
50310;BME280;36207;51.850;21.698;2024-01-06T11:02:19;99438.34;;;-0.11;78.57
50310;BME280;36207;51.850;21.698;2024-01-06T11:04:46;99432.52;;;-0.15;78.80
50310;BME280;36207;51.850;21.698;2024-01-06T11:07:18;99432.77;;;-0.18;78.71
50310;BME280;36207;51.850;21.698;2024-01-06T11:12:31;99425.38;;;-0.19;78.91
50310;BME280;36207;51.850;21.698;2024-01-06T11:14:58;99429.11;;;-0.18;78.70
50310;BME280;36207;51.850;21.698;2024-01-06T11:17:54;99431.66;;;-0.17;78.75
50310;BME280;36207;51.850;21.698;2024-01-06T11:20:27;99431.81;;;-0.17;78.90
50310;BME280;36207;51.850;21.698;2024-01-06T11:22:53;99427.77;;;-0.18;78.70
50310;BME280;36207;51.850;21.698;2024-01-06T11:25:21;99429.08;;;-0.22;78.79
50310;BME280;36207;51.850;21.698;2024-01-06T11:27:49;99433.73;;;-0.23;78.57
50310;BME280;36207;51.850;21.698;2024-01-06T11:32:45;99429.34;;;-0.23;78.88
50310;BME280;36207;51.850;21.698;2024-01-06T11:35:14;99430.17;;;-0.22;78.78
50310;BME280;36207;51.850;21.698;2024-01-06T11:43:06;99436.89;;;-0.25;78.80
50310;BME280;36207;51.850;21.698;2024-01-06T11:45:37;99436.89;;;-0.26;78.87
50310;BME280;36207;51.850;21.698;2024-01-06T11:48:07;99432.78;;;-0.24;78.78
50310;BME280;36207;51.850;21.698;2024-01-06T11:50:35;99438.52;;;-0.28;78.55
50310;BME280;36207;51.850;21.698;2024-01-06T11:53:02;99435.36;;;-0.31;78.58
50310;BME280;36207;51.850;21.698;2024-01-06T11:55:29;99441.59;;;-0.34;78.50
50310;BME280;36207;51.850;21.698;2024-01-06T11:57:59;99443.60;;;-0.37;78.70
50310;BME280;36207;51.850;21.698;2024-01-06T12:00:28;99445.42;;;-0.42;78.49
50310;BME280;36207;51.850;21.698;2024-01-06T12:02:59;99444.75;;;-0.40;78.73
50310;BME280;36207;51.850;21.698;2024-01-06T12:05:27;99446.77;;;-0.37;78.72
50310;BME280;36207;51.850;21.698;2024-01-06T12:07:58;99447.08;;;-0.39;78.57
50310;BME280;36207;51.850;21.698;2024-01-06T12:10:25;99450.46;;;-0.44;78.45
50310;BME280;36207;51.850;21.698;2024-01-06T12:12:59;99451.69;;;-0.46;78.71
50310;BME280;36207;51.850;21.698;2024-01-06T12:15:29;99453.61;;;-0.46;78.77
50310;BME280;36207;51.850;21.698;2024-01-06T12:17:56;99450.27;;;-0.46;78.74
50310;BME280;36207;51.850;21.698;2024-01-06T12:20:23;99450.53;;;-0.45;78.69
50310;BME280;36207;51.850;21.698;2024-01-06T12:22:53;99451.02;;;-0.47;78.70
50310;BME280;36207;51.850;21.698;2024-01-06T12:25:23;99454.14;;;-0.44;78.93
50310;BME280;36207;51.850;21.698;2024-01-06T12:27:49;99453.84;;;-0.40;78.83
50310;BME280;36207;51.850;21.698;2024-01-06T12:30:18;99454.16;;;-0.40;78.80
50310;BME280;36207;51.850;21.698;2024-01-06T12:32:48;99457.76;;;-0.41;78.83
50310;BME280;36207;51.850;21.698;2024-01-06T12:35:15;99461.27;;;-0.43;78.70
50310;BME280;36207;51.850;21.698;2024-01-06T12:37:42;99461.86;;;-0.49;78.57
50310;BME280;36207;51.850;21.698;2024-01-06T12:40:12;99465.90;;;-0.51;78.61
50310;BME280;36207;51.850;21.698;2024-01-06T12:42:38;99466.64;;;-0.52;78.55
50310;BME280;36207;51.850;21.698;2024-01-06T12:45:06;99468.83;;;-0.53;78.53
50310;BME280;36207;51.850;21.698;2024-01-06T12:47:33;99474.21;;;-0.55;78.70
50310;BME280;36207;51.850;21.698;2024-01-06T12:49:59;99474.34;;;-0.54;78.66
50310;BME280;36207;51.850;21.698;2024-01-06T12:52:25;99480.09;;;-0.56;78.53
50310;BME280;36207;51.850;21.698;2024-01-06T12:54:51;99479.64;;;-0.57;78.63
50310;BME280;36207;51.850;21.698;2024-01-06T12:57:18;99481.63;;;-0.58;78.61
50310;BME280;36207;51.850;21.698;2024-01-06T12:59:44;99485.20;;;-0.59;78.48